Time;durP1;ratioP1;P1;durP2;ratioP2;P2;SDS_P1;SDS_P2;PMS_P1;PMS_P2;Temp;Humidity;BMP_temperature;BMP_pressure;BME280_temperature;BME280_humidity;BME280_pressure;Samples;Min_cycle;Max_cycle;Signal;HPM_P1;HPM_P2
2023/03/06 00:00:02;;;;;;;1.43;1.43;;;;;;;5.76;71.26;99563.13;5050482;28;20250;-74
2023/03/06 00:02:29;;;;;;;0.80;0.80;;;;;;;5.62;70.07;99553.31;5049817;28;20311;-76
2023/03/06 00:04:56;;;;;;;0.60;0.60;;;;;;;5.72;70.78;99553.59;5049862;28;20210;-74
2023/03/06 00:07:22;;;;;;;0.70;0.70;;;;;;;5.72;70.04;99542.44;5049963;28;20203;-75
2023/03/06 00:09:49;;;;;;;0.80;0.80;;;;;;;5.56;69.79;99514.59;5050241;28;20200;-74
2023/03/06 00:12:16;;;;;;;0.77;0.77;;;;;;;5.69;68.91;99540.66;5049918;28;20203;-75
2023/03/06 00:14:43;;;;;;;0.60;0.60;;;;;;;5.73;68.70;99544.19;5053566;28;20862;-75
2023/03/06 00:17:11;;;;;;;0.60;0.60;;;;;;;5.82;68.30;99544.41;5053599;28;20277;-75
2023/03/06 00:19:38;;;;;;;4.07;3.80;;;;;;;5.71;68.53;99540.69;5053530;28;20191;-74
2023/03/06 00:22:04;;;;;;;0.70;0.70;;;;;;;5.74;68.14;99517.66;5053825;28;20199;-76
2023/03/06 00:24:31;;;;;;;0.70;0.70;;;;;;;5.78;68.21;99547.75;5053361;28;20295;-75
2023/03/06 00:26:58;;;;;;;0.80;0.80;;;;;;;5.76;67.34;99532.28;5034916;28;20211;-74
2023/03/06 00:29:25;;;;;;;0.90;0.90;;;;;;;5.75;67.55;99545.94;5053787;28;20218;-75
2023/03/06 00:31:52;;;;;;;0.70;0.70;;;;;;;5.68;68.20;99509.75;5053415;28;20654;-74
2023/03/06 00:34:20;;;;;;;1.17;1.17;;;;;;;5.78;66.83;99540.03;5034479;28;20661;-74
2023/03/06 00:36:46;;;;;;;0.93;0.93;;;;;;;5.74;67.50;99541.63;5053685;28;20231;-75
2023/03/06 00:39:13;;;;;;;1.90;1.30;;;;;;;5.68;67.79;99531.19;5053739;28;20208;-75
2023/03/06 00:41:40;;;;;;;0.80;0.80;;;;;;;5.68;68.19;99531.19;5053430;28;20199;-76
2023/03/06 00:44:07;;;;;;;0.90;0.90;;;;;;;5.61;67.53;99507.84;5053143;28;20199;-74
2023/03/06 00:46:34;;;;;;;0.80;0.80;;;;;;;5.73;68.40;99523.63;5052671;28;20200;-74
2023/03/06 00:49:00;;;;;;;0.70;0.70;;;;;;;5.75;66.85;99529.66;5052941;28;20210;-74
2023/03/06 00:51:29;;;;;;;1.00;1.00;;;;;;;5.71;67.54;99510.69;5053082;28;20207;-74
2023/03/06 00:53:55;;;;;;;1.10;1.10;;;;;;;5.66;67.97;99516.56;5034494;28;20192;-74
2023/03/06 00:56:22;;;;;;;0.80;0.80;;;;;;;5.67;68.35;99524.31;5053179;28;20236;-74
2023/03/06 00:58:49;;;;;;;0.60;0.60;;;;;;;5.57;67.22;99506.91;5091153;28;20326;-74
2023/03/06 01:01:16;;;;;;;1.00;1.00;;;;;;;5.61;67.58;99519.03;5093003;28;20198;-74
2023/03/06 01:03:43;;;;;;;0.80;0.80;;;;;;;5.61;68.09;99520.72;5092813;28;20198;-74
2023/03/06 01:06:09;;;;;;;0.70;0.70;;;;;;;5.63;68.17;99501.06;5092353;28;20201;-75
2023/03/06 01:08:38;;;;;;;0.70;0.70;;;;;;;5.62;68.19;99513.06;5041281;28;20198;-75
2023/03/06 01:11:05;;;;;;;0.60;0.60;;;;;;;5.43;68.68;99492.84;5092245;28;20538;-74
2023/03/06 01:13:31;;;;;;;0.80;0.80;;;;;;;5.68;67.76;99513.19;5057301;28;20201;-75
2023/03/06 01:16:06;;;;;;;1.43;1.43;;;;;;;5.53;68.85;99496.53;5092486;28;20222;-75
2023/03/06 01:18:33;;;;;;;0.90;0.90;;;;;;;5.65;69.66;99519.97;5074442;28;20203;-74
2023/03/06 01:20:59;;;;;;;0.90;0.90;;;;;;;5.53;69.92;99496.53;5077572;28;20676;-74
2023/03/06 01:23:26;;;;;;;0.70;0.70;;;;;;;5.59;69.42;99520.69;5093117;28;20596;-73
2023/03/06 01:25:54;;;;;;;0.80;0.80;;;;;;;5.62;70.62;99514.75;5092015;28;20209;-75
2023/03/06 01:28:21;;;;;;;0.83;0.83;;;;;;;5.33;71.23;99494.31;5092527;28;20198;-75
2023/03/06 01:30:48;;;;;;;0.80;0.80;;;;;;;5.32;72.67;99492.56;5092697;28;20198;-75
2023/03/06 01:33:15;;;;;;;0.70;0.70;;;;;;;5.38;74.27;99512.44;5092530;28;20198;-74
2023/03/06 01:35:42;;;;;;;0.80;0.80;;;;;;;5.37;73.23;99485.84;5092360;28;20222;-74
2023/03/06 01:38:09;;;;;;;0.90;0.90;;;;;;;5.49;73.28;99496.44;5092501;28;20624;-75
2023/03/06 01:40:37;;;;;;;0.80;0.80;;;;;;;5.43;73.27;99498.84;5092712;28;20687;-75
2023/03/06 01:43:11;;;;;;;1.10;1.10;;;;;;;5.48;74.20;99501.56;5091631;28;20194;-75
2023/03/06 01:46:18;;;;;;;0.60;0.60;;;;;;;5.45;74.50;99497.22;5092571;28;20205;-75
2023/03/06 01:48:46;;;;;;;0.73;0.73;;;;;;;5.31;75.02;99472.84;4996879;28;20224;-74
2023/03/06 01:51:13;;;;;;;3.53;3.33;;;;;;;5.41;73.93;99499.66;5010089;28;20204;-74
2023/03/06 01:53:42;;;;;;;0.80;0.80;;;;;;;5.53;73.36;99494.81;5009604;28;20225;-75
2023/03/06 01:56:10;;;;;;;0.70;0.70;;;;;;;5.52;73.25;99503.38;5009877;28;20231;-73
2023/03/06 01:58:38;;;;;;;0.70;0.70;;;;;;;5.56;73.46;99484.63;5009473;28;20774;-75
2023/03/06 02:01:05;;;;;;;1.77;1.67;;;;;;;5.45;73.59;99492.06;5009305;28;20644;-75
2023/03/06 02:03:33;;;;;;;0.80;0.80;;;;;;;5.49;73.25;99506.72;5009384;28;20201;-75
2023/03/06 02:06:00;;;;;;;0.80;0.80;;;;;;;5.45;74.08;99504.91;5008636;28;20219;-77
2023/03/06 02:08:30;;;;;;;1.00;1.00;;;;;;;5.49;72.49;99488.72;5009135;28;20204;-76
2023/03/06 02:11:01;;;;;;;0.80;0.80;;;;;;;5.56;72.83;99510.34;5009592;28;20192;-76
2023/03/06 02:13:29;;;;;;;1.27;1.27;;;;;;;5.54;70.74;99509.41;5009324;28;20711;-75
2023/03/06 02:15:57;;;;;;;0.67;0.67;;;;;;;5.54;71.06;99514.56;5009637;28;20224;-75
2023/03/06 02:18:24;;;;;;;0.80;0.80;;;;;;;5.54;70.73;99523.97;5009066;28;20593;-75
2023/03/06 02:20:54;;;;;;;0.77;0.77;;;;;;;5.56;69.83;99517.19;5009836;28;20675;-75
2023/03/06 02:23:30;;;;;;;1.10;1.10;;;;;;;5.59;69.00;99517.25;5009164;28;20200;-75
2023/03/06 02:25:59;;;;;;;0.80;0.80;;;;;;;5.38;70.78;99474.75;5054986;28;20214;-74
2023/03/06 02:28:29;;;;;;;0.60;0.60;;;;;;;5.37;70.55;99478.16;5091453;28;20194;-75
2023/03/06 02:30:56;;;;;;;1.63;1.53;;;;;;;5.45;70.79;99522.91;5024070;28;20632;-75
2023/03/06 02:33:26;;;;;;;1.00;1.00;;;;;;;5.45;70.61;99512.63;5085732;28;20202;-76
2023/03/06 02:35:55;;;;;;;1.07;1.07;;;;;;;5.35;72.20;99497.78;5090855;28;20233;-75
2023/03/06 02:38:27;;;;;;;1.00;1.00;;;;;;;5.36;72.94;99496.97;5090571;28;20587;-75
2023/03/06 02:40:54;;;;;;;1.47;1.37;;;;;;;5.39;71.98;99529.56;5090887;28;20194;-75
2023/03/06 02:43:27;;;;;;;0.90;0.90;;;;;;;5.43;72.58;99536.53;5090721;28;20206;-75
2023/03/06 02:45:54;;;;;;;0.93;0.93;;;;;;;5.27;73.04;99527.56;5091359;28;20213;-74
2023/03/06 02:48:24;;;;;;;1.23;1.23;;;;;;;5.31;73.07;99519.13;5023332;28;20202;-74
2023/03/06 02:50:51;;;;;;;0.80;0.80;;;;;;;5.15;73.14;99511.81;5090634;28;20222;-74
2023/03/06 02:53:20;;;;;;;0.60;0.60;;;;;;;5.17;73.27;99517.88;5091024;28;20213;-74
2023/03/06 02:55:47;;;;;;;0.60;0.60;;;;;;;5.06;73.54;99521.84;5091091;28;20233;-74
2023/03/06 02:58:14;;;;;;;0.70;0.70;;;;;;;5.19;74.76;99544.47;5090973;28;20241;-74
2023/03/06 03:00:42;;;;;;;0.60;0.60;;;;;;;5.18;75.45;99549.56;5090632;28;20202;-74
2023/03/06 03:03:09;;;;;;;1.83;1.03;;;;;;;4.91;75.90;99506.00;5090387;28;20201;-73
2023/03/06 03:05:36;;;;;;;0.80;0.80;;;;;;;5.09;75.26;99550.19;5090433;28;20603;-75
2023/03/06 03:08:03;;;;;;;0.73;0.73;;;;;;;5.02;75.31;99563.69;5090909;28;20205;-75
2023/03/06 03:10:30;;;;;;;1.20;1.20;;;;;;;5.04;75.98;99551.75;5090269;28;20206;-75
2023/03/06 03:12:57;;;;;;;0.70;0.70;;;;;;;5.04;75.41;99551.75;5090844;28;20194;-74
2023/03/06 03:15:24;;;;;;;1.07;1.07;;;;;;;5.01;75.98;99551.66;5090740;28;20193;-75
2023/03/06 03:17:53;;;;;;;0.90;0.90;;;;;;;4.93;76.98;99546.31;5090892;28;20320;-75
2023/03/06 03:20:21;;;;;;;1.43;1.43;;;;;;;4.95;77.25;99538.66;5090586;28;20198;-75
2023/03/06 03:22:49;;;;;;;0.83;0.83;;;;;;;5.02;77.12;99547.41;5088889;28;20300;-76
2023/03/06 03:25:16;;;;;;;0.80;0.80;;;;;;;4.89;77.21;99528.19;5090801;28;20198;-76
2023/03/06 03:27:43;;;;;;;1.00;1.00;;;;;;;4.88;77.69;99547.00;5086797;28;20206;-75
2023/03/06 03:30:11;;;;;;;1.33;1.33;;;;;;;4.94;77.74;99537.78;5038796;28;20202;-76
2023/03/06 03:32:38;;;;;;;1.30;1.30;;;;;;;4.81;77.85;99534.81;5090208;28;20201;-76
2023/03/06 03:35:08;;;;;;;0.80;0.80;;;;;;;4.83;76.76;99523.75;5038022;28;20225;-76
2023/03/06 03:37:36;;;;;;;0.90;0.90;;;;;;;4.86;77.54;99538.38;5090150;28;20308;-76
2023/03/06 03:40:05;;;;;;;1.60;1.57;;;;;;;4.99;77.66;99548.19;5090175;28;20198;-75
2023/03/06 03:42:32;;;;;;;1.10;1.10;;;;;;;4.96;77.56;99566.06;5055552;28;20198;-76
2023/03/06 03:44:59;;;;;;;0.80;0.80;;;;;;;5.00;76.59;99550.78;5090680;28;20194;-76
2023/03/06 03:47:25;;;;;;;0.80;0.80;;;;;;;5.04;76.72;99559.44;5090281;28;20206;-74
2023/03/06 03:49:52;;;;;;;0.63;0.63;;;;;;;4.85;76.57;99522.09;5094873;28;20206;-75
2023/03/06 03:52:20;;;;;;;4.33;3.50;;;;;;;5.17;76.70;99570.97;5090132;28;20210;-75
2023/03/06 03:54:47;;;;;;;0.80;0.80;;;;;;;5.03;76.71;99573.09;5090239;28;20205;-74
2023/03/06 03:57:14;;;;;;;1.00;1.00;;;;;;;4.91;77.64;99549.66;5084050;28;20256;-74
2023/03/06 03:59:41;;;;;;;0.80;0.80;;;;;;;4.88;77.16;99526.47;5084410;28;20201;-75
2023/03/06 04:02:07;;;;;;;1.10;1.10;;;;;;;5.01;77.34;99569.66;5093916;28;20209;-74
2023/03/06 04:04:34;;;;;;;1.20;1.20;;;;;;;5.08;76.94;99566.41;5093901;28;20198;-74
2023/03/06 04:07:03;;;;;;;0.70;0.70;;;;;;;4.97;77.19;99566.13;5093887;28;20206;-74
2023/03/06 04:09:31;;;;;;;0.97;0.97;;;;;;;5.05;77.10;99556.06;5093242;28;20292;-74
2023/03/06 04:11:58;;;;;;;0.60;0.60;;;;;;;5.00;77.67;99578.16;5092110;28;20612;-74
2023/03/06 04:14:25;;;;;;;0.80;0.80;;;;;;;5.02;77.67;99589.38;5092914;28;20205;-75
2023/03/06 04:16:51;;;;;;;0.90;0.90;;;;;;;5.02;77.94;99581.66;5093588;28;20229;-74
2023/03/06 04:19:18;;;;;;;0.80;0.80;;;;;;;4.97;78.64;99585.78;5092691;28;20194;-76
2023/03/06 04:21:45;;;;;;;0.70;0.70;;;;;;;4.49;78.80;99503.06;5093744;28;20565;-78
2023/03/06 04:24:12;;;;;;;0.80;0.80;;;;;;;4.98;78.52;99595.25;5094419;28;20206;-76
2023/03/06 04:26:40;;;;;;;0.80;0.80;;;;;;;4.96;78.47;99594.31;5093864;28;20206;-75
2023/03/06 04:29:07;;;;;;;0.70;0.70;;;;;;;4.89;79.28;99600.09;5094116;28;20209;-76
2023/03/06 04:31:34;;;;;;;0.90;0.90;;;;;;;4.94;86.72;99598.56;5093812;28;20568;-74
2023/03/06 04:34:01;;;;;;;1.47;1.47;;;;;;;4.97;80.30;99593.50;5093369;28;20202;-74
2023/03/06 04:36:29;;;;;;;1.00;1.00;;;;;;;4.90;80.74;99604.41;5041138;28;20222;-74
2023/03/06 04:38:56;;;;;;;0.80;0.80;;;;;;;4.79;80.65;99592.94;5093295;28;20235;-73
2023/03/06 04:41:23;;;;;;;1.10;1.10;;;;;;;4.60;81.00;99560.75;5093370;28;20202;-74
2023/03/06 04:43:52;;;;;;;1.13;1.13;;;;;;;4.83;80.96;99603.38;5093543;28;20205;-75
2023/03/06 04:46:19;;;;;;;0.80;0.80;;;;;;;4.75;80.32;99601.38;5091890;28;20205;-76
2023/03/06 04:48:45;;;;;;;0.90;0.90;;;;;;;4.85;80.32;99606.00;5093487;28;20202;-75
2023/03/06 04:51:13;;;;;;;0.80;0.80;;;;;;;4.83;81.20;99599.91;5092816;28;20206;-73
2023/03/06 04:53:40;;;;;;;3.60;1.90;;;;;;;4.89;80.46;99621.53;5093434;28;20209;-74
2023/03/06 04:56:07;;;;;;;0.70;0.70;;;;;;;4.95;80.56;99616.59;5093179;28;20217;-77
2023/03/06 04:58:34;;;;;;;0.90;0.90;;;;;;;4.85;82.88;99588.88;5092911;28;20225;-75
2023/03/06 05:01:03;;;;;;;0.80;0.80;;;;;;;5.00;81.89;99615.00;5092276;28;20577;-75
2023/03/06 05:03:30;;;;;;;0.77;0.77;;;;;;;4.93;80.58;99618.22;5057450;28;20213;-74
2023/03/06 05:05:57;;;;;;;0.90;0.90;;;;;;;4.78;81.94;99599.78;5091750;28;20580;-75
2023/03/06 05:08:23;;;;;;;0.90;0.90;;;;;;;4.95;83.00;99624.28;5073013;28;20222;-74
2023/03/06 05:10:55;;;;;;;0.87;0.87;;;;;;;4.99;83.73;99623.53;5088134;28;20210;-75
2023/03/06 05:13:22;;;;;;;1.23;1.23;;;;;;;4.36;83.29;99534.31;5090761;28;20240;-76
2023/03/06 05:15:49;;;;;;;0.90;0.90;;;;;;;4.89;83.58;99621.53;5091861;28;20201;-76
2023/03/06 05:18:18;;;;;;;0.80;0.80;;;;;;;4.80;83.33;99602.41;5088867;28;20226;-76
2023/03/06 05:20:45;;;;;;;0.70;0.70;;;;;;;4.94;82.23;99630.25;5082050;28;20225;-76
2023/03/06 05:23:12;;;;;;;0.70;0.70;;;;;;;4.93;81.79;99605.38;5085904;28;20195;-75
2023/03/06 05:25:40;;;;;;;0.70;0.70;;;;;;;4.96;82.19;99617.44;5089806;28;20203;-76
2023/03/06 05:28:07;;;;;;;0.70;0.70;;;;;;;5.19;81.26;99646.38;5091580;28;20202;-77
2023/03/06 05:30:35;;;;;;;0.80;0.80;;;;;;;5.15;81.03;99640.28;5090008;28;20198;-76
2023/03/06 05:33:02;;;;;;;0.83;0.83;;;;;;;5.08;80.12;99622.06;5092053;28;20194;-76
2023/03/06 05:35:30;;;;;;;0.70;0.70;;;;;;;5.26;80.66;99646.59;5088833;28;20206;-76
2023/03/06 05:37:57;;;;;;;0.80;0.80;;;;;;;5.23;80.82;99648.22;5053825;28;20697;-77
2023/03/06 05:40:24;;;;;;;0.77;0.77;;;;;;;5.34;80.55;99650.28;5092134;28;20201;-77
2023/03/06 05:42:50;;;;;;;1.03;1.03;;;;;;;5.25;80.21;99629.44;5078528;28;20213;-80
2023/03/06 05:45:17;;;;;;;1.40;1.40;;;;;;;5.27;79.54;99630.38;5092361;28;20723;-78
2023/03/06 05:47:44;;;;;;;0.90;0.90;;;;;;;5.42;79.44;99655.63;5056713;28;20210;-79
2023/03/06 05:50:12;;;;;;;0.80;0.80;;;;;;;5.33;78.82;99661.38;5092190;28;20202;-78
2023/03/06 05:52:41;;;;;;;1.00;1.00;;;;;;;5.33;78.85;99651.09;5091919;28;20663;-79
2023/03/06 05:55:11;;;;;;;0.80;0.80;;;;;;;5.57;79.06;99684.31;5092097;28;20194;-78
2023/03/06 05:57:38;;;;;;;0.90;0.90;;;;;;;5.49;77.78;99678.97;5091979;28;20229;-80
2023/03/06 06:00:06;;;;;;;0.80;0.80;;;;;;;5.58;77.64;99687.78;5092175;28;20205;-80
2023/03/06 06:02:33;;;;;;;0.70;0.70;;;;;;;5.48;78.42;99687.53;5091967;28;20210;-78
2023/03/06 06:05:01;;;;;;;0.70;0.70;;;;;;;5.54;77.34;99698.78;5032277;28;20195;-81
2023/03/06 06:07:28;;;;;;;0.90;0.90;;;;;;;5.61;78.32;99698.13;5080887;28;20243;-78
2023/03/06 06:09:56;;;;;;;9.30;8.73;;;;;;;5.67;77.30;99703.47;5086191;28;20217;-78
2023/03/06 06:12:23;;;;;;;1.13;1.13;;;;;;;5.63;77.79;99712.81;5091229;28;20217;-76
2023/03/06 06:14:49;;;;;;;0.90;0.90;;;;;;;5.71;77.54;99705.28;5026101;28;20206;-79
2023/03/06 06:17:16;;;;;;;0.80;0.80;;;;;;;5.73;75.79;99713.94;5038101;28;20227;-77
2023/03/06 06:19:43;;;;;;;0.80;0.80;;;;;;;5.70;75.32;99719.00;5091538;28;20683;-77
2023/03/06 06:22:10;;;;;;;0.80;0.80;;;;;;;5.74;74.97;99731.13;5083207;28;20716;-78
2023/03/06 06:24:37;;;;;;;0.87;0.87;;;;;;;5.73;74.93;99730.25;5084809;28;20217;-78
2023/03/06 06:27:06;;;;;;;0.70;0.70;;;;;;;5.73;76.42;99719.06;5091089;28;20213;-77
2023/03/06 06:29:33;;;;;;;0.73;0.73;;;;;;;5.84;74.78;99722.81;5090869;28;20210;-79
2023/03/06 06:32:00;;;;;;;1.77;1.77;;;;;;;5.99;72.50;99741.31;5090914;28;20202;-79
2023/03/06 06:34:27;;;;;;;0.90;0.90;;;;;;;6.04;72.78;99737.13;5090975;28;20213;-78
2023/03/06 06:36:54;;;;;;;0.80;0.80;;;;;;;5.88;71.91;99719.53;5090713;28;20275;-80
2023/03/06 06:39:23;;;;;;;1.40;1.40;;;;;;;6.17;72.80;99744.34;5055585;28;20202;-73
2023/03/06 06:41:51;;;;;;;0.97;0.97;;;;;;;6.11;71.58;99751.03;5090731;28;20205;-79
2023/03/06 06:44:20;;;;;;;1.93;1.83;;;;;;;6.11;72.45;99763.91;5091342;28;20209;-79
2023/03/06 06:46:49;;;;;;;0.63;0.63;;;;;;;6.06;71.96;99758.66;5091249;28;20213;-78
2023/03/06 06:49:16;;;;;;;0.70;0.70;;;;;;;6.18;72.08;99769.25;5091202;28;20209;-77
2023/03/06 06:51:43;;;;;;;0.80;0.80;;;;;;;6.07;70.66;99747.50;5091292;28;20214;-78
2023/03/06 06:54:10;;;;;;;0.90;0.90;;;;;;;6.27;70.18;99766.94;5090931;28;20212;-77
2023/03/06 06:56:37;;;;;;;1.27;1.27;;;;;;;6.29;70.60;99779.84;5091011;28;20210;-78
2023/03/06 06:59:04;;;;;;;0.90;0.90;;;;;;;6.43;71.35;99771.66;5091232;28;20195;-78
2023/03/06 07:01:32;;;;;;;1.77;1.70;;;;;;;6.49;69.40;99764.09;5090944;28;20688;-77
2023/03/06 07:03:59;;;;;;;0.90;0.90;;;;;;;6.34;68.67;99761.13;5091073;28;20574;-78
2023/03/06 07:06:25;;;;;;;0.60;0.60;;;;;;;6.51;69.82;99779.59;5091407;28;20221;-78
2023/03/06 07:08:52;;;;;;;0.60;0.60;;;;;;;6.58;69.41;99783.19;5091364;28;20202;-79
2023/03/06 07:11:19;;;;;;;0.70;0.70;;;;;;;6.54;69.27;99766.78;5077170;28;20200;-79
2023/03/06 07:13:47;;;;;;;0.80;0.80;;;;;;;6.69;68.72;99792.94;5078769;28;20573;-79
2023/03/06 07:16:16;;;;;;;0.90;0.90;;;;;;;6.75;67.83;99782.78;5074017;28;20198;-79
2023/03/06 07:18:44;;;;;;;1.67;1.67;;;;;;;7.01;67.92;99791.16;5090795;28;20261;-78
2023/03/06 07:21:11;;;;;;;0.70;0.70;;;;;;;7.06;65.40;99784.44;5090093;28;20201;-79
2023/03/06 07:23:39;;;;;;;0.90;0.90;;;;;;;7.01;67.61;99796.31;5090260;28;20190;-79
2023/03/06 07:26:06;;;;;;;2.50;2.40;;;;;;;6.98;65.92;99796.25;5090759;28;20210;-78
2023/03/06 07:28:33;;;;;;;0.90;0.90;;;;;;;7.05;65.58;99785.25;5090905;28;20213;-80
2023/03/06 07:31:00;;;;;;;0.60;0.60;;;;;;;7.24;81.68;99773.69;5090793;28;20213;-78
2023/03/06 07:33:27;;;;;;;0.57;0.57;;;;;;;7.35;65.24;99809.16;5076645;28;20197;-80
2023/03/06 07:35:55;;;;;;;1.73;1.73;;;;;;;7.39;64.96;99810.13;5090719;28;20197;-77
2023/03/06 07:38:22;;;;;;;0.70;0.70;;;;;;;7.66;81.50;99809.88;5090663;28;20214;-79
2023/03/06 07:40:53;;;;;;;0.70;0.70;;;;;;;7.59;66.85;99810.59;5091181;28;20206;-81
2023/03/06 07:43:20;;;;;;;0.70;0.70;;;;;;;7.45;67.50;99807.69;5090693;28;20263;-80
2023/03/06 07:45:46;;;;;;;0.73;0.73;;;;;;;7.57;65.24;99818.28;5090811;28;20205;-80
2023/03/06 07:48:14;;;;;;;0.67;0.67;;;;;;;7.74;65.34;99818.66;5076346;28;20214;-80
2023/03/06 07:50:40;;;;;;;0.90;0.90;;;;;;;7.79;63.96;99817.03;5090882;28;20202;-79
2023/03/06 07:53:09;;;;;;;1.70;1.13;;;;;;;7.65;63.15;99821.91;5025830;28;20221;-79
2023/03/06 07:55:36;;;;;;;4.90;2.67;;;;;;;7.62;62.73;99808.94;5090536;28;20198;-78
2023/03/06 07:58:02;;;;;;;1.47;1.40;;;;;;;7.86;62.40;99826.66;5038334;28;20230;-80
2023/03/06 08:00:29;;;;;;;1.10;1.10;;;;;;;8.05;59.59;99831.38;5076328;28;20657;-82
2023/03/06 08:02:56;;;;;;;1.13;1.13;;;;;;;8.19;58.80;99824.78;5090736;28;20247;-79
2023/03/06 08:05:23;;;;;;;0.77;0.77;;;;;;;8.20;59.21;99833.41;5090080;28;20676;-81
2023/03/06 08:07:50;;;;;;;10.93;1.37;;;;;;;8.38;58.67;99832.06;5090679;28;20606;-81
2023/03/06 08:10:18;;;;;;;1.20;1.20;;;;;;;8.41;58.35;99834.75;5090598;28;20198;-78
2023/03/06 08:12:45;;;;;;;0.83;0.83;;;;;;;8.31;62.38;99832.78;5090539;28;20210;-79
2023/03/06 08:15:13;;;;;;;1.90;1.80;;;;;;;8.48;60.19;99833.16;5054991;28;20614;-78
2023/03/06 08:17:40;;;;;;;0.83;0.83;;;;;;;8.41;58.70;99842.50;5038054;28;20245;-78
2023/03/06 08:20:09;;;;;;;0.70;0.70;;;;;;;8.44;59.77;99832.22;5090540;28;20202;-80
2023/03/06 08:22:36;;;;;;;1.27;1.27;;;;;;;8.62;58.42;99834.28;5041004;28;20238;-80
2023/03/06 08:25:05;;;;;;;0.73;0.73;;;;;;;8.18;58.18;99784.31;5076186;28;20202;-81
2023/03/06 08:27:34;;;;;;;1.00;1.00;;;;;;;8.43;58.09;99835.63;5090366;28;20217;-77
2023/03/06 08:30:01;;;;;;;0.90;0.90;;;;;;;8.43;56.90;99825.28;5090292;28;20195;-77
2023/03/06 08:32:28;;;;;;;0.80;0.80;;;;;;;8.23;56.68;99824.00;5090262;28;20194;-78
2023/03/06 08:34:55;;;;;;;1.13;1.13;;;;;;;8.30;56.43;99807.84;5091026;28;20209;-77
2023/03/06 08:37:22;;;;;;;1.47;1.40;;;;;;;8.39;55.32;99820.03;5093822;28;20218;-77
2023/03/06 08:39:48;;;;;;;0.60;0.60;;;;;;;8.41;55.25;99820.97;5092422;28;20680;-78
2023/03/06 08:42:15;;;;;;;0.80;0.80;;;;;;;8.40;55.24;99794.25;5081369;28;20289;-80
2023/03/06 08:44:44;;;;;;;15.83;11.60;;;;;;;8.64;55.17;99834.28;5093990;28;20194;-82
2023/03/06 08:47:10;;;;;;;1.07;1.07;;;;;;;8.64;55.18;99847.22;5093876;28;20225;-84
2023/03/06 08:49:38;;;;;;;1.30;1.20;;;;;;;8.64;55.69;99840.34;5094002;28;20198;-84
2023/03/06 08:52:05;;;;;;;0.70;0.70;;;;;;;8.78;55.50;99832.81;5093489;28;20194;-85
2023/03/06 08:54:34;;;;;;;1.97;1.87;;;;;;;8.87;53.80;99838.19;5093883;28;20226;-85
2023/03/06 08:57:01;;;;;;;0.60;0.60;;;;;;;8.85;54.00;99819.16;5093370;28;20634;-77
2023/03/06 08:59:38;;;;;;;0.70;0.70;;;;;;;9.17;53.52;99836.09;5093749;28;20222;-78
2023/03/06 09:02:10;;;;;;;0.90;0.90;;;;;;;9.25;52.87;99844.88;5075496;28;20649;-85
2023/03/06 09:04:37;;;;;;;2.50;2.40;;;;;;;9.22;52.75;99844.81;5059315;28;20206;-74
2023/03/06 09:07:04;;;;;;;0.80;0.80;;;;;;;9.24;52.37;99837.94;5093339;28;20205;-78
2023/03/06 09:09:39;;;;;;;0.63;0.63;;;;;;;9.33;51.52;99835.53;5082882;28;20213;-80
2023/03/06 09:12:10;;;;;;;0.60;0.60;;;;;;;9.61;51.68;99836.81;5048072;28;20202;-77
2023/03/06 09:14:37;;;;;;;0.60;0.60;;;;;;;9.57;50.38;99826.38;5024515;28;20642;-78
2023/03/06 09:17:03;;;;;;;6.77;2.80;;;;;;;9.57;49.86;99839.31;5010823;28;20312;-79
2023/03/06 09:19:32;;;;;;;0.70;0.70;;;;;;;9.61;50.52;99843.69;4977922;28;20232;-80
2023/03/06 09:21:59;;;;;;;0.70;0.70;;;;;;;9.57;50.61;99834.13;5010682;28;20648;-80
2023/03/06 09:24:26;;;;;;;0.60;0.60;;;;;;;9.72;50.65;99840.41;4981893;28;20203;-77
2023/03/06 09:26:53;;;;;;;0.80;0.80;;;;;;;9.31;50.23;99788.03;5023410;28;20208;-77
2023/03/06 09:29:20;;;;;;;0.60;0.60;;;;;;;9.80;50.17;99837.94;5011699;28;20211;-76
2023/03/06 09:31:47;;;;;;;0.90;0.90;;;;;;;9.88;50.21;99841.53;5010491;28;20217;-79
2023/03/06 09:34:14;;;;;;;0.60;0.60;;;;;;;9.98;50.01;99838.19;5010363;28;20288;-77
2023/03/06 09:36:42;;;;;;;1.37;1.37;;;;;;;10.10;49.53;99840.94;5019890;28;20254;-78
2023/03/06 09:39:09;;;;;;;0.90;0.90;;;;;;;10.24;49.46;99842.00;5011757;28;20740;-77
2023/03/06 09:41:37;;;;;;;0.70;0.70;;;;;;;10.23;49.18;99837.69;5010856;28;20306;-78
2023/03/06 09:44:07;;;;;;;2.00;1.97;;;;;;;10.36;48.74;99841.28;5010430;28;20209;-77
2023/03/06 09:46:50;;;;;;;0.70;0.70;;;;;;;10.22;48.12;99825.59;5010174;28;20263;-78
2023/03/06 09:49:39;;;;;;;0.60;0.60;;;;;;;10.44;48.21;99845.72;5010205;28;20277;-78
2023/03/06 09:52:22;;;;;;;0.60;0.60;;;;;;;10.50;48.35;99844.03;5047853;28;20559;-80
2023/03/06 09:54:53;;;;;;;0.70;0.70;;;;;;;10.25;47.50;99828.22;5092537;28;20205;-80
2023/03/06 09:57:25;;;;;;;0.85;0.85;;;;;;;10.31;47.39;99823.09;5092296;28;20230;-78
2023/03/06 09:59:55;;;;;;;0.70;0.70;;;;;;;10.53;46.85;99826.78;5091908;28;20225;-77
2023/03/06 10:02:29;;;;;;;0.70;0.70;;;;;;;10.62;47.04;99818.25;5092465;28;20209;-81
2023/03/06 10:05:02;;;;;;;0.68;0.68;;;;;;;10.76;47.50;99837.44;5077591;28;20202;-78
2023/03/06 10:07:43;;;;;;;0.70;0.70;;;;;;;10.75;46.47;99835.69;5092037;28;20256;-79
2023/03/06 10:10:17;;;;;;;1.00;1.00;;;;;;;10.73;46.41;99820.13;5091806;28;20206;-78
2023/03/06 10:12:51;;;;;;;0.70;0.70;;;;;;;10.71;46.40;99795.00;5092290;28;20198;-79
2023/03/06 10:15:21;;;;;;;0.70;0.70;;;;;;;10.68;45.72;99808.81;5091961;28;20251;-79
2023/03/06 10:17:48;;;;;;;0.80;0.80;;;;;;;10.67;45.57;99816.56;5081377;28;20268;-79
2023/03/06 10:20:22;;;;;;;0.70;0.70;;;;;;;10.83;46.25;99818.47;5088344;28;20206;-78
2023/03/06 10:23:19;;;;;;;0.60;0.60;;;;;;;11.08;45.38;99812.66;5091770;28;20292;-78
2023/03/06 10:25:53;;;;;;;1.40;1.30;;;;;;;10.78;45.21;99800.28;5034456;28;20198;-73
2023/03/06 10:28:27;;;;;;;0.60;0.60;;;;;;;10.96;45.71;99807.34;5087425;28;20214;-78
2023/03/06 10:31:01;;;;;;;2.55;2.45;;;;;;;11.03;45.52;99810.88;5061627;28;20202;-80
2023/03/06 10:33:37;;;;;;;0.70;0.70;;;;;;;10.97;45.70;99809.09;5081029;28;20205;-77
2023/03/06 10:36:04;;;;;;;0.70;0.70;;;;;;;11.00;46.13;99803.06;5046575;28;20212;-77
2023/03/06 10:38:36;;;;;;;0.98;0.98;;;;;;;11.03;45.35;99801.34;5045752;28;20226;-76
2023/03/06 10:41:08;;;;;;;0.95;0.95;;;;;;;10.97;45.15;99795.25;5080027;28;20199;-76
2023/03/06 10:43:36;;;;;;;0.70;0.70;;;;;;;11.18;45.55;99800.63;5028716;28;20194;-77
2023/03/06 10:46:04;;;;;;;0.70;0.70;;;;;;;10.95;45.47;99764.13;5091624;28;20210;-78
2023/03/06 10:48:34;;;;;;;0.70;0.70;;;;;;;11.22;46.03;99786.81;5091313;28;20198;-76
2023/03/06 10:51:17;;;;;;;0.70;0.70;;;;;;;11.30;46.08;99769.59;5091710;28;20247;-75
2023/03/06 10:53:54;;;;;;;1.08;1.08;;;;;;;11.42;45.83;99767.06;5090957;28;20721;-78
2023/03/06 10:56:31;;;;;;;0.85;0.85;;;;;;;11.72;46.12;99784.59;5091472;28;20202;-76
2023/03/06 10:59:09;;;;;;;0.52;0.52;;;;;;;11.86;45.80;99783.81;5090714;28;20225;-78
2023/03/06 11:01:36;;;;;;;0.60;0.60;;;;;;;11.75;45.50;99779.41;5091198;28;20190;-80
2023/03/06 11:04:21;;;;;;;0.90;0.90;;;;;;;11.86;45.40;99773.41;5091532;28;20206;-77
2023/03/06 11:06:48;;;;;;;22.02;6.82;;;;;;;11.80;45.75;99778.59;5091546;28;20252;-78
2023/03/06 11:09:22;;;;;;;1.08;1.08;;;;;;;11.73;45.49;99760.34;5091018;28;20212;-79
2023/03/06 11:11:49;;;;;;;0.70;0.70;;;;;;;11.63;45.03;99759.38;5091306;28;20229;-82
2023/03/06 11:14:18;;;;;;;2.25;1.00;;;;;;;11.51;45.97;99733.38;5091286;28;20198;-77
2023/03/06 11:16:51;;;;;;;1.70;1.60;;;;;;;11.71;45.55;99759.47;5091077;28;20315;-80
2023/03/06 11:19:22;;;;;;;0.60;0.60;;;;;;;11.56;45.95;99741.19;5056967;28;20582;-78
2023/03/06 11:22:01;;;;;;;0.80;0.80;;;;;;;11.78;45.00;99737.84;5086138;28;20292;-80
2023/03/06 11:24:36;;;;;;;1.17;1.17;;;;;;;11.80;44.25;99756.94;5031930;28;20210;-80
2023/03/06 11:27:15;;;;;;;1.88;1.88;;;;;;;11.70;44.13;99755.97;5078957;28;20217;-81
2023/03/06 11:29:45;;;;;;;1.27;1.27;;;;;;;11.68;44.76;99747.31;5082192;28;20275;-79
2023/03/06 11:32:16;;;;;;;0.80;0.80;;;;;;;11.87;43.84;99743.97;5081317;28;20693;-80
2023/03/06 11:34:48;;;;;;;1.00;1.00;;;;;;;11.77;43.91;99717.97;5080398;28;20202;-79
2023/03/06 11:37:23;;;;;;;0.88;0.88;;;;;;;11.91;43.57;99745.72;5079582;28;20234;-79
2023/03/06 11:40:00;;;;;;;1.02;1.02;;;;;;;10.77;44.71;99548.75;5043802;28;20217;-79
2023/03/06 11:42:30;;;;;;;1.15;1.15;;;;;;;11.71;43.51;99723.97;5079817;28;20194;-80
2023/03/06 11:45:09;;;;;;;0.65;0.65;;;;;;;12.02;43.67;99730.16;5084639;28;20823;-78